Time;durP1;ratioP1;P1;durP2;ratioP2;P2;SDS_P1;SDS_P2;PMS_P1;PMS_P2;Temp;Humidity;BMP_temperature;BMP_pressure;BME280_temperature;BME280_humidity;BME280_pressure;Samples;Min_cycle;Max_cycle;Signal;HPM_P1;HPM_P2
2021/08/05 00:01:50;;;;;;;2.47;1.60;;;;;;;24.70;64.58;97597.84;5044219;28;20225;-69
2021/08/05 00:04:19;;;;;;;2.40;1.70;;;;;;;24.86;63.87;97587.44;5034727;28;20204;-70
2021/08/05 00:06:46;;;;;;;2.30;1.90;;;;;;;24.97;63.61;97578.75;5034936;28;20235;-69
2021/08/05 00:09:13;;;;;;;2.10;1.73;;;;;;;24.97;63.47;97575.22;5033165;28;20665;-71
2021/08/05 00:11:41;;;;;;;2.93;1.80;;;;;;;24.98;63.30;97574.91;5046155;28;20290;-68
2021/08/05 00:14:08;;;;;;;4.27;1.77;;;;;;;24.87;63.82;97572.72;5034269;28;20224;-69
2021/08/05 00:16:35;;;;;;;3.40;2.23;;;;;;;24.56;65.66;97568.88;5034317;28;20238;-69
2021/08/05 00:19:03;;;;;;;2.73;1.90;;;;;;;24.92;64.24;97578.03;5034903;28;20581;-69
2021/08/05 00:21:32;;;;;;;3.07;1.93;;;;;;;24.98;63.83;97577.66;5033986;28;20573;-69
2021/08/05 00:23:59;;;;;;;1.70;1.60;;;;;;;24.90;64.64;97574.81;5036653;28;20664;-69
2021/08/05 00:26:26;;;;;;;2.77;1.87;;;;;;;24.90;64.65;97578.38;5035100;28;20224;-69
2021/08/05 00:28:53;;;;;;;2.87;1.70;;;;;;;24.87;63.75;97578.16;5037639;28;20800;-69
2021/08/05 00:31:21;;;;;;;3.27;1.80;;;;;;;24.99;63.21;97578.47;5037373;28;20203;-70
2021/08/05 00:33:48;;;;;;;2.10;1.80;;;;;;;24.99;62.95;97578.47;5040032;28;20207;-69
2021/08/05 00:36:15;;;;;;;2.30;1.80;;;;;;;24.93;63.31;97582.41;5031064;28;20220;-70
2021/08/05 00:38:44;;;;;;;2.33;1.83;;;;;;;24.98;62.97;97585.84;5032940;28;20207;-70
2021/08/05 00:41:12;;;;;;;2.93;2.00;;;;;;;24.99;64.09;97582.00;5042325;28;20208;-69
2021/08/05 00:43:40;;;;;;;2.10;1.87;;;;;;;24.96;64.14;97584.53;5036867;28;20235;-69
2021/08/05 00:46:07;;;;;;;3.73;1.90;;;;;;;24.64;66.57;97590.88;5039970;28;20234;-70
2021/08/05 00:48:34;;;;;;;2.23;1.73;;;;;;;24.99;64.94;97597.59;5036663;28;20211;-69
2021/08/05 00:51:02;;;;;;;2.50;1.90;;;;;;;24.97;64.49;97586.97;5045158;28;20200;-69
2021/08/05 00:53:29;;;;;;;2.70;1.80;;;;;;;25.04;64.24;97592.03;5036465;28;20204;-69
2021/08/05 00:55:58;;;;;;;3.37;1.93;;;;;;;25.02;64.03;97586.84;5043414;28;20242;-70
2021/08/05 00:58:25;;;;;;;4.43;2.43;;;;;;;25.05;63.54;97594.47;5024672;28;20211;-69
2021/08/05 01:00:57;;;;;;;1.93;1.60;;;;;;;24.78;64.22;97588.97;5032626;28;20200;-69
2021/08/05 01:03:27;;;;;;;2.93;2.00;;;;;;;24.69;64.63;97593.50;5034023;28;20215;-69
2021/08/05 01:06:01;;;;;;;2.73;1.90;;;;;;;24.93;62.88;97585.16;5041900;28;20243;-70
2021/08/05 01:08:29;;;;;;;2.23;1.60;;;;;;;24.91;62.31;97581.88;5032725;28;20214;-69
2021/08/05 01:11:02;;;;;;;4.13;1.73;;;;;;;24.97;62.10;97573.31;5040118;28;20208;-69
2021/08/05 01:13:34;;;;;;;1.83;1.60;;;;;;;25.03;61.40;97576.75;5036294;28;20203;-70
2021/08/05 01:16:02;;;;;;;2.57;1.83;;;;;;;24.81;61.39;97566.53;5038917;28;20230;-70
2021/08/05 01:18:32;;;;;;;2.07;1.80;;;;;;;24.74;62.25;97571.59;5031742;28;20264;-70
2021/08/05 01:21:05;;;;;;;3.27;2.20;;;;;;;24.74;62.22;97577.03;5032187;28;20203;-70
2021/08/05 01:23:42;;;;;;;4.23;1.73;;;;;;;24.80;61.83;97581.28;5034713;28;20679;-69
2021/08/05 01:26:14;;;;;;;2.03;1.80;;;;;;;24.63;62.58;97580.25;5028548;28;20591;-69
2021/08/05 01:28:47;;;;;;;2.43;1.90;;;;;;;24.61;63.61;97574.28;5033449;28;20202;-69
2021/08/05 01:31:14;;;;;;;3.03;1.63;;;;;;;24.75;62.86;97567.75;5027107;28;20206;-70
2021/08/05 01:33:42;;;;;;;1.77;1.50;;;;;;;24.69;63.32;97574.41;5030192;28;20194;-70
2021/08/05 01:36:09;;;;;;;2.67;1.93;;;;;;;24.55;63.52;97570.81;5030281;28;20231;-69
2021/08/05 01:38:38;;;;;;;1.90;1.70;;;;;;;24.59;63.40;97569.13;5035969;28;20214;-69
2021/08/05 01:41:06;;;;;;;2.03;1.67;;;;;;;24.59;63.56;97565.59;5035446;28;20233;-69
2021/08/05 01:43:34;;;;;;;3.17;1.93;;;;;;;24.33;65.26;97556.22;5032378;28;20224;-69
2021/08/05 01:46:03;;;;;;;3.90;1.97;;;;;;;24.41;65.63;97558.22;5040018;28;20245;-69
2021/08/05 01:48:31;;;;;;;4.63;1.90;;;;;;;24.41;65.64;97559.06;5032464;28;20203;-70
2021/08/05 01:51:00;;;;;;;5.83;1.80;;;;;;;24.44;65.00;97555.75;5040878;28;20250;-69
2021/08/05 01:53:27;;;;;;;4.27;1.90;;;;;;;24.23;65.95;97554.44;5033841;28;20213;-69
2021/08/05 01:55:55;;;;;;;2.33;1.90;;;;;;;24.56;64.39;97553.31;5036139;28;20228;-69
2021/08/05 01:58:22;;;;;;;2.27;1.77;;;;;;;24.60;64.15;97561.75;5027065;28;20213;-69
2021/08/05 02:00:50;;;;;;;2.93;1.50;;;;;;;24.64;63.83;97554.56;5032808;28;20211;-69
2021/08/05 02:03:19;;;;;;;4.07;2.27;;;;;;;24.47;64.56;97552.38;5038914;28;20228;-70
2021/08/05 02:05:53;;;;;;;1.97;1.67;;;;;;;24.76;63.08;97549.41;5038319;28;20226;-69
2021/08/05 02:08:23;;;;;;;3.83;1.80;;;;;;;24.84;62.49;97546.00;5032616;28;20682;-71
2021/08/05 02:10:56;;;;;;;2.30;1.67;;;;;;;24.88;62.44;97556.00;5041740;28;20211;-69
2021/08/05 02:13:28;;;;;;;3.10;2.07;;;;;;;24.91;62.32;97549.94;5031975;28;20699;-70
2021/08/05 02:15:56;;;;;;;4.13;2.07;;;;;;;24.84;63.19;97552.28;5041376;28;20286;-69
2021/08/05 02:18:28;;;;;;;2.80;2.03;;;;;;;24.85;63.77;97547.63;5036278;28;20215;-70
2021/08/05 02:20:57;;;;;;;2.40;2.17;;;;;;;24.75;64.45;97548.63;5030035;28;20207;-69
2021/08/05 02:23:24;;;;;;;3.00;1.90;;;;;;;24.83;63.28;97536.19;5029526;28;20225;-70
2021/08/05 02:25:53;;;;;;;3.80;2.30;;;;;;;24.75;62.94;97536.91;5031141;28;20235;-70
2021/08/05 02:28:22;;;;;;;2.83;2.10;;;;;;;24.58;63.82;97547.56;5034225;28;20198;-70
2021/08/05 02:30:50;;;;;;;3.27;2.03;;;;;;;24.39;65.45;97536.72;5031221;28;20211;-70
2021/08/05 02:33:18;;;;;;;3.77;2.63;;;;;;;24.02;68.32;97536.81;5034657;28;20203;-71
2021/08/05 02:35:48;;;;;;;2.70;2.03;;;;;;;24.06;68.43;97537.06;5029662;28;20232;-70
2021/08/05 02:38:15;;;;;;;2.50;2.10;;;;;;;24.00;68.88;97532.75;5031921;28;20264;-70
2021/08/05 02:40:44;;;;;;;5.73;2.47;;;;;;;24.11;68.33;97526.06;5037973;28;20218;-71
2021/08/05 02:43:12;;;;;;;3.63;1.97;;;;;;;24.23;67.51;97531.84;5031247;28;20230;-71
2021/08/05 02:45:40;;;;;;;4.20;1.93;;;;;;;24.03;67.68;97532.19;5033078;28;20236;-71
2021/08/05 02:48:09;;;;;;;4.50;2.30;;;;;;;24.16;67.88;97540.41;5032030;28;20247;-71
2021/08/05 02:50:37;;;;;;;2.10;1.80;;;;;;;23.95;68.14;97530.94;5033031;28;20601;-70
2021/08/05 02:53:06;;;;;;;5.20;2.00;;;;;;;23.86;67.98;97529.97;5031397;28;20199;-71
2021/08/05 02:55:34;;;;;;;3.07;2.30;;;;;;;23.99;67.13;97526.53;5041370;28;20230;-71
2021/08/05 02:58:02;;;;;;;2.63;2.07;;;;;;;24.00;67.11;97528.13;5039541;28;20216;-70
2021/08/05 03:00:30;;;;;;;2.73;1.90;;;;;;;23.98;66.68;97527.63;5038901;28;20207;-69
2021/08/05 03:02:57;;;;;;;3.37;2.00;;;;;;;24.04;66.16;97536.53;5034254;28;20236;-69
2021/08/05 03:05:25;;;;;;;1.70;1.60;;;;;;;23.96;66.45;97531.78;5047601;28;20222;-71
2021/08/05 03:07:52;;;;;;;4.50;3.27;;;;;;;23.85;67.42;97528.34;5032013;28;20237;-71
2021/08/05 03:10:21;;;;;;;5.17;2.40;;;;;;;23.72;68.43;97528.28;5043535;28;20221;-71
2021/08/05 03:12:48;;;;;;;3.73;2.10;;;;;;;23.87;67.36;97520.69;5029057;28;20639;-71
2021/08/05 03:15:16;;;;;;;5.90;2.27;;;;;;;23.34;71.41;97523.94;5030426;28;20222;-71
2021/08/05 03:17:43;;;;;;;3.80;2.20;;;;;;;23.76;68.76;97519.22;5036351;28;20206;-71
2021/08/05 03:20:15;;;;;;;4.17;2.23;;;;;;;23.79;68.63;97520.53;5032962;28;20667;-72
2021/08/05 03:22:43;;;;;;;5.10;2.10;;;;;;;23.86;68.25;97521.78;5030178;28;20225;-71
2021/08/05 03:25:11;;;;;;;5.00;2.40;;;;;;;23.99;67.32;97529.25;5027847;28;20276;-72
2021/08/05 03:27:40;;;;;;;5.20;2.20;;;;;;;23.81;68.61;97519.13;5040069;28;20619;-71
2021/08/05 03:30:09;;;;;;;3.40;2.57;;;;;;;23.50;70.79;97515.28;5035645;28;20197;-71
2021/08/05 03:32:36;;;;;;;3.70;2.33;;;;;;;23.86;68.11;97521.78;5038872;28;20207;-71
2021/08/05 03:35:04;;;;;;;4.93;3.23;;;;;;;23.51;71.40;97522.34;5035380;28;20222;-70
2021/08/05 03:37:31;;;;;;;3.73;2.60;;;;;;;23.80;69.87;97513.97;5032236;28;20206;-71
2021/08/05 03:39:58;;;;;;;4.73;2.27;;;;;;;23.74;70.03;97526.91;5030616;28;20221;-72
2021/08/05 03:42:26;;;;;;;4.03;2.60;;;;;;;23.72;69.76;97511.94;5031806;28;20207;-71
2021/08/05 03:44:55;;;;;;;6.70;2.53;;;;;;;23.79;69.41;97520.53;5033310;28;20576;-71
2021/08/05 03:47:22;;;;;;;3.20;2.40;;;;;;;23.65;70.46;97522.38;5033775;28;20202;-71
2021/08/05 03:49:49;;;;;;;4.77;2.50;;;;;;;23.65;71.45;97525.94;5054819;22;20257;-68
2021/08/05 03:52:17;;;;;;;5.60;2.60;;;;;;;23.86;69.71;97519.06;5031546;28;20592;-68
2021/08/05 03:54:44;;;;;;;4.97;3.30;;;;;;;23.69;70.74;97518.81;5029458;28;20203;-68
2021/08/05 03:57:11;;;;;;;4.30;2.83;;;;;;;23.64;72.35;97520.78;5031179;28;20206;-68
2021/08/05 03:59:38;;;;;;;6.70;2.70;;;;;;;23.79;70.96;97526.81;5029792;28;20236;-68
2021/08/05 04:02:07;;;;;;;5.73;2.70;;;;;;;23.83;70.89;97519.69;5031020;28;20689;-68
2021/08/05 04:04:34;;;;;;;3.07;2.70;;;;;;;23.84;71.39;97512.28;5029314;28;20234;-68
2021/08/05 04:07:02;;;;;;;3.70;2.60;;;;;;;23.97;71.42;97517.03;5030947;28;20210;-68
2021/08/05 04:09:29;;;;;;;4.87;2.80;;;;;;;24.07;70.29;97516.84;5029790;28;20234;-69
2021/08/05 04:11:56;;;;;;;4.77;2.53;;;;;;;24.12;69.64;97514.03;5029829;28;20213;-68
2021/08/05 04:14:23;;;;;;;4.23;2.63;;;;;;;24.11;70.61;97510.50;5027701;28;20202;-68
2021/08/05 04:16:51;;;;;;;6.00;2.80;;;;;;;24.20;70.00;97518.78;5031044;28;20207;-68
2021/08/05 04:19:19;;;;;;;4.77;3.30;;;;;;;24.06;69.82;97517.97;5030152;28;20234;-68
2021/08/05 04:21:50;;;;;;;3.90;3.03;;;;;;;24.23;69.67;97519.00;5029518;28;20222;-68
2021/08/05 04:24:17;;;;;;;3.53;2.67;;;;;;;24.31;69.11;97512.03;5027515;28;20310;-69
2021/08/05 04:26:44;;;;;;;4.27;2.70;;;;;;;24.46;68.93;97522.69;5029539;28;20694;-69
2021/08/05 04:29:11;;;;;;;3.10;2.67;;;;;;;24.52;68.25;97518.78;5032154;28;20269;-69
2021/08/05 04:31:39;;;;;;;3.40;2.77;;;;;;;24.47;69.68;97524.31;5034163;28;20207;-69
2021/08/05 04:34:06;;;;;;;5.93;3.40;;;;;;;24.60;68.47;97524.38;5030856;28;20288;-68
2021/08/05 04:36:35;;;;;;;4.83;2.70;;;;;;;24.66;68.32;97527.78;5034027;28;20214;-69
2021/08/05 04:39:02;;;;;;;7.40;2.60;;;;;;;24.77;67.66;97531.97;5032810;28;20727;-68
2021/08/05 04:41:30;;;;;;;3.13;2.20;;;;;;;24.62;68.68;97533.03;5034269;28;20217;-69
2021/08/05 04:43:58;;;;;;;2.77;2.43;;;;;;;24.69;68.26;97529.91;5033469;28;20230;-69
2021/08/05 04:46:25;;;;;;;5.90;2.63;;;;;;;23.58;74.76;97532.88;5034837;28;20202;-68
2021/08/05 04:48:52;;;;;;;4.53;2.87;;;;;;;24.08;72.50;97535.66;5032793;28;20603;-72
2021/08/05 04:51:20;;;;;;;5.13;2.80;;;;;;;23.84;75.82;97528.63;5033009;28;20207;-73
2021/08/05 04:53:48;;;;;;;3.93;2.90;;;;;;;23.77;75.22;97523.56;5033073;28;20203;-68
2021/08/05 04:56:15;;;;;;;4.60;2.53;;;;;;;24.03;74.64;97524.00;5033415;28;20206;-68
2021/08/05 04:58:43;;;;;;;4.40;2.77;;;;;;;24.30;72.57;97524.88;5033972;28;20226;-68
2021/08/05 05:01:10;;;;;;;5.00;3.00;;;;;;;23.30;78.76;97521.00;5032827;28;20207;-69
2021/08/05 05:03:37;;;;;;;6.87;3.37;;;;;;;23.37;78.81;97523.38;5033496;28;20593;-68
2021/08/05 05:06:04;;;;;;;3.77;2.73;;;;;;;24.00;75.25;97525.41;5033062;28;20222;-68
2021/08/05 05:08:32;;;;;;;4.53;3.20;;;;;;;24.36;73.75;97526.41;5033485;28;20238;-69
2021/08/05 05:11:00;;;;;;;5.13;3.10;;;;;;;24.14;74.58;97522.72;5038787;28;20217;-68
2021/08/05 05:13:28;;;;;;;4.77;2.77;;;;;;;23.42;77.58;97531.47;5033236;28;20210;-68
2021/08/05 05:15:55;;;;;;;4.63;2.83;;;;;;;24.42;73.51;97524.41;5031919;28;20211;-67
2021/08/05 05:18:24;;;;;;;5.80;2.90;;;;;;;24.96;69.31;97521.72;5031331;28;20242;-70
2021/08/05 05:20:52;;;;;;;9.50;3.57;;;;;;;24.34;72.83;97516.91;5034852;28;20211;-68
2021/08/05 05:23:19;;;;;;;4.90;3.10;;;;;;;23.95;74.52;97511.03;5024081;28;20231;-70
2021/08/05 05:25:47;;;;;;;4.47;3.00;;;;;;;23.79;76.38;97513.19;5033089;28;20214;-69
2021/08/05 05:28:16;;;;;;;4.67;3.03;;;;;;;24.59;71.21;97505.56;5024646;28;20315;-74
2021/08/05 05:30:44;;;;;;;7.80;2.90;;;;;;;24.85;70.68;97517.59;5034209;28;20298;-77
2021/08/05 05:33:11;;;;;;;5.00;3.00;;;;;;;23.83;74.40;97513.41;5036286;28;20296;-78
2021/08/05 05:35:39;;;;;;;5.80;3.23;;;;;;;24.86;70.05;97524.66;5033434;28;20203;-70
2021/08/05 05:38:07;;;;;;;6.83;3.20;;;;;;;25.20;67.88;97523.13;5028129;28;20240;-70
2021/08/05 05:40:35;;;;;;;8.00;3.30;;;;;;;24.92;68.75;97526.16;5031200;28;20207;-71
2021/08/05 05:43:04;;;;;;;6.20;3.60;;;;;;;25.23;68.38;97514.31;5032663;28;20672;-69
2021/08/05 05:45:33;;;;;;;10.13;3.60;;;;;;;24.28;73.34;97509.94;5032609;28;20218;-74
2021/08/05 05:48:01;;;;;;;8.57;3.33;;;;;;;25.47;66.57;97520.38;5033059;28;20209;-73
2021/08/05 05:50:29;;;;;;;6.40;3.20;;;;;;;25.35;65.08;97531.03;5032927;28;20214;-71
2021/08/05 05:52:57;;;;;;;6.77;3.17;;;;;;;25.36;67.51;97524.44;5032502;28;20204;-77
2021/08/05 05:55:25;;;;;;;6.23;2.87;;;;;;;24.58;69.57;97518.38;5034070;28;20200;-78
2021/08/05 05:57:52;;;;;;;5.20;2.90;;;;;;;25.28;66.31;97522.44;5035576;28;20204;-76
2021/08/05 06:00:19;;;;;;;4.27;2.43;;;;;;;25.83;61.73;97532.09;5041028;28;20233;-77
2021/08/05 06:02:48;;;;;;;8.80;3.10;;;;;;;24.93;68.17;97516.88;5036320;28;20214;-69
2021/08/05 06:05:15;;;;;;;9.73;2.93;;;;;;;25.21;65.25;97522.00;5031853;28;20239;-69
2021/08/05 06:07:44;;;;;;;3.53;2.43;;;;;;;25.80;62.44;97520.97;5034308;28;20207;-68
2021/08/05 06:10:13;;;;;;;5.47;2.83;;;;;;;26.25;60.36;97520.66;5030907;28;20213;-68
2021/08/05 06:12:40;;;;;;;11.03;2.87;;;;;;;26.20;59.36;97529.00;5033284;28;20582;-70
2021/08/05 06:15:08;;;;;;;3.87;2.70;;;;;;;26.84;58.20;97522.94;5032034;28;20202;-70
2021/08/05 06:17:35;;;;;;;6.67;2.70;;;;;;;26.47;57.19;97530.78;5034186;28;20206;-70
2021/08/05 06:20:05;;;;;;;4.50;2.50;;;;;;;27.57;53.47;97528.44;5032024;28;20229;-69
2021/08/05 06:22:32;;;;;;;5.90;2.30;;;;;;;27.30;53.31;97533.41;5029556;28;20213;-72
2021/08/05 06:24:59;;;;;;;3.13;2.37;;;;;;;27.62;50.10;97533.78;5031559;28;20226;-70
2021/08/05 06:27:27;;;;;;;10.63;2.50;;;;;;;27.88;48.74;97531.88;5034158;28;20301;-71
2021/08/05 06:29:54;;;;;;;3.80;2.17;;;;;;;28.05;47.04;97536.53;5032383;28;20229;-68
2021/08/05 06:32:22;;;;;;;3.70;2.30;;;;;;;27.58;48.39;97537.47;5032808;28;20199;-71
2021/08/05 06:34:49;;;;;;;6.60;2.10;;;;;;;28.05;47.28;97531.88;5032646;28;20210;-69
2021/08/05 06:37:18;;;;;;;5.70;2.07;;;;;;;27.18;50.25;97530.47;5027149;28;20285;-68
2021/08/05 06:39:45;;;;;;;2.40;1.93;;;;;;;27.53;49.62;97532.97;5031946;28;20226;-69
2021/08/05 06:42:12;;;;;;;5.50;2.10;;;;;;;27.31;50.91;97535.81;5028074;28;20206;-69
2021/08/05 06:44:39;;;;;;;2.23;2.00;;;;;;;27.48;51.55;97532.31;5031969;28;20233;-70
2021/08/05 06:47:07;;;;;;;5.57;2.07;;;;;;;27.45;51.61;97530.19;5031362;28;20221;-68
2021/08/05 06:49:35;;;;;;;6.53;2.40;;;;;;;27.70;50.25;97532.16;5031123;28;20714;-68
2021/08/05 06:52:03;;;;;;;5.27;2.00;;;;;;;28.05;49.09;97540.09;5030623;28;21003;-72
2021/08/05 06:54:32;;;;;;;4.00;1.90;;;;;;;27.74;50.43;97533.94;5033758;28;20659;-72
2021/08/05 06:56:59;;;;;;;3.13;2.10;;;;;;;27.79;49.29;97535.75;5032513;28;20203;-72
2021/08/05 06:59:26;;;;;;;3.03;1.93;;;;;;;27.66;49.30;97540.22;5031601;28;20222;-73
2021/08/05 07:01:53;;;;;;;3.73;1.93;;;;;;;27.39;50.62;97535.03;5020138;28;20207;-68
2021/08/05 07:04:21;;;;;;;12.40;3.57;;;;;;;27.32;49.60;97551.13;5030299;28;20226;-70
2021/08/05 07:06:48;;;;;;;12.17;4.60;;;;;;;26.90;53.02;97529.09;5030737;28;20210;-69
2021/08/05 07:09:15;;;;;;;5.20;2.30;;;;;;;27.68;49.89;97539.91;5031561;28;20222;-70
2021/08/05 07:11:44;;;;;;;4.20;2.10;;;;;;;28.27;48.14;97542.66;5034377;28;20218;-69
2021/08/05 07:14:11;;;;;;;3.43;2.17;;;;;;;27.43;50.55;97535.19;5022467;28;20675;-70
2021/08/05 07:16:38;;;;;;;4.57;2.57;;;;;;;28.07;47.58;97540.56;5030383;28;20246;-70
2021/08/05 07:19:06;;;;;;;2.70;2.00;;;;;;;28.66;44.56;97547.94;5030510;28;20246;-70
2021/08/05 07:21:33;;;;;;;2.17;1.80;;;;;;;28.95;43.79;97549.91;5027251;28;20686;-68
2021/08/05 07:24:00;;;;;;;4.90;1.70;;;;;;;29.06;43.13;97549.25;5025865;28;20224;-70
2021/08/05 07:26:28;;;;;;;3.83;1.80;;;;;;;29.22;41.15;97555.78;5031327;28;20212;-69
2021/08/05 07:28:56;;;;;;;6.53;2.47;;;;;;;28.47;42.58;97549.44;5029971;28;20242;-70
2021/08/05 07:31:23;;;;;;;5.40;1.90;;;;;;;27.63;45.14;97545.56;5031456;28;20227;-70
2021/08/05 07:33:54;;;;;;;4.33;2.03;;;;;;;28.21;44.14;97538.47;5031156;28;20558;-71
2021/08/05 07:36:22;;;;;;;5.77;1.83;;;;;;;29.09;40.45;97542.28;5030453;28;20289;-70
2021/08/05 07:38:49;;;;;;;4.73;1.73;;;;;;;27.68;43.75;97543.47;5038767;28;20252;-70
2021/08/05 07:41:16;;;;;;;4.13;1.90;;;;;;;27.29;45.60;97529.88;5032255;28;20200;-71
2021/08/05 07:43:44;;;;;;;3.97;2.03;;;;;;;28.26;42.51;97530.06;5031148;28;20204;-71
2021/08/05 07:46:12;;;;;;;2.87;2.03;;;;;;;27.13;47.70;97516.91;5031365;28;20221;-70
2021/08/05 07:48:40;;;;;;;4.97;1.70;;;;;;;28.67;42.20;97521.25;5030640;28;20242;-70
2021/08/05 07:51:07;;;;;;;3.57;1.83;;;;;;;30.42;38.96;97533.69;5029961;28;20200;-69
2021/08/05 07:53:35;;;;;;;3.33;1.77;;;;;;;29.48;40.35;97522.63;5033219;28;20209;-70
2021/08/05 07:56:02;;;;;;;2.70;1.83;;;;;;;28.39;42.30;97520.88;5032047;28;20208;-70
2021/08/05 07:58:30;;;;;;;2.50;1.40;;;;;;;30.11;39.15;97530.63;5031748;28;20732;-70
2021/08/05 08:00:57;;;;;;;4.17;1.60;;;;;;;30.32;38.65;97531.38;5031855;28;20220;-70
2021/08/05 08:03:25;;;;;;;3.13;1.70;;;;;;;28.90;41.17;97519.88;5033039;28;20211;-70
2021/08/05 08:05:53;;;;;;;2.33;1.70;;;;;;;29.82;39.48;97531.50;5034135;28;20592;-70
2021/08/05 08:08:20;;;;;;;3.42;1.83;;;;;;;30.50;37.95;97541.09;5034863;28;20229;-69
2021/08/05 08:10:47;;;;;;;3.23;1.63;;;;;;;27.99;43.19;97527.69;5034054;28;20210;-69
2021/08/05 08:13:15;;;;;;;2.72;1.73;;;;;;;30.53;38.01;97534.88;5035763;28;20198;-69
2021/08/05 08:15:42;;;;;;;3.87;1.60;;;;;;;29.32;40.71;97530.69;5034795;28;20293;-69
2021/08/05 08:18:09;;;;;;;2.92;1.92;;;;;;;30.65;37.36;97538.47;5035003;28;20710;-69
2021/08/05 08:20:38;;;;;;;3.72;1.67;;;;;;;30.10;38.59;97537.25;5032430;28;20201;-69
2021/08/05 08:23:06;;;;;;;3.60;1.80;;;;;;;29.59;38.73;97537.66;5034366;28;20199;-70
2021/08/05 08:25:33;;;;;;;6.57;2.78;;;;;;;29.58;40.35;97527.78;5034203;28;20596;-69
2021/08/05 08:28:00;;;;;;;3.63;1.90;;;;;;;30.20;38.83;97534.88;5036646;28;20297;-68
2021/08/05 08:30:28;;;;;;;4.45;1.60;;;;;;;30.31;38.52;97521.50;5034037;28;20237;-71
2021/08/05 08:32:55;;;;;;;3.22;2.17;;;;;;;30.65;38.83;97526.66;5033766;28;20268;-71
2021/08/05 08:35:22;;;;;;;2.08;1.88;;;;;;;29.95;40.66;97513.09;5034030;28;20210;-72
2021/08/05 08:37:51;;;;;;;4.30;1.88;;;;;;;28.80;42.62;97503.75;5034311;28;20207;-72
2021/08/05 08:40:19;;;;;;;3.23;1.73;;;;;;;29.23;42.35;97515.38;5041760;28;20216;-71
2021/08/05 08:42:46;;;;;;;3.50;1.93;;;;;;;29.64;41.97;97508.00;5041170;28;20213;-73
2021/08/05 08:45:17;;;;;;;2.63;1.77;;;;;;;29.68;40.79;97505.38;5036677;28;20264;-71
2021/08/05 08:47:53;;;;;;;4.50;2.03;;;;;;;30.09;39.38;97514.41;5034267;28;20257;-71
2021/08/05 08:50:25;;;;;;;3.75;1.65;;;;;;;30.43;39.28;97521.53;5033258;28;20213;-71
2021/08/05 08:52:56;;;;;;;3.35;1.60;;;;;;;30.02;37.73;97529.84;5034456;28;20213;-71
2021/08/05 08:55:27;;;;;;;3.30;1.63;;;;;;;30.16;38.16;97522.94;5036398;28;20203;-72
2021/08/05 08:57:57;;;;;;;5.63;1.70;;;;;;;29.55;39.05;97511.94;5034312;28;20237;-75
2021/08/05 09:00:24;;;;;;;3.20;1.83;;;;;;;28.29;42.67;97498.41;5034263;28;20297;-73
2021/08/05 09:02:52;;;;;;;1.50;1.30;;;;;;;28.89;40.76;97512.78;5037499;28;20210;-69
2021/08/05 09:05:20;;;;;;;3.63;1.60;;;;;;;28.91;40.61;97505.81;5034166;28;20321;-69
2021/08/05 09:07:47;;;;;;;2.73;1.63;;;;;;;28.57;41.68;97505.94;5033550;28;20209;-68
2021/08/05 09:10:16;;;;;;;3.67;1.73;;;;;;;29.54;38.63;97516.63;5034113;28;20207;-68
2021/08/05 09:12:44;;;;;;;3.03;1.90;;;;;;;29.68;38.55;97508.13;5034035;28;20209;-69
2021/08/05 09:15:12;;;;;;;5.00;1.80;;;;;;;28.03;43.45;97494.91;5029521;28;20201;-69
2021/08/05 09:17:48;;;;;;;2.27;1.73;;;;;;;29.75;38.71;97505.66;5033740;28;20210;-69
2021/08/05 09:20:24;;;;;;;4.03;1.53;;;;;;;30.65;35.94;97513.66;5035720;28;20212;-69
2021/08/05 09:22:57;;;;;;;1.90;1.60;;;;;;;28.58;38.97;97512.25;5037463;28;20609;-70
2021/08/05 09:25:29;;;;;;;3.43;1.83;;;;;;;29.10;38.55;97511.75;5032373;28;20227;-70
2021/08/05 09:27:58;;;;;;;2.73;1.70;;;;;;;30.64;35.15;97519.50;5031419;28;20220;-70
2021/08/05 09:30:34;;;;;;;2.10;1.52;;;;;;;28.37;39.99;97503.88;5033594;28;20210;-69
2021/08/05 09:33:14;;;;;;;2.33;1.60;;;;;;;29.06;39.69;97497.03;5031993;28;20624;-69
2021/08/05 09:35:48;;;;;;;2.17;1.60;;;;;;;29.70;37.74;97503.88;5031408;28;20203;-71
2021/08/05 09:38:20;;;;;;;2.33;1.67;;;;;;;31.31;34.13;97512.38;5026971;28;20225;-70
2021/08/05 09:40:50;;;;;;;1.85;1.60;;;;;;;29.25;37.35;97493.84;5031861;28;21083;-71
2021/08/05 09:43:28;;;;;;;1.40;1.30;;;;;;;28.83;38.47;97489.38;5032877;28;20260;-71
2021/08/05 09:45:59;;;;;;;1.60;1.20;;;;;;;30.07;36.28;97493.84;5030887;28;20210;-70
2021/08/05 09:48:54;;;;;;;1.83;1.10;;;;;;;32.20;31.50;97506.41;5032773;28;20265;-74
2021/08/05 09:51:23;;;;;;;2.13;1.60;;;;;;;31.91;32.67;97508.69;5029163;28;20479;-74
2021/08/05 09:54:05;;;;;;;2.05;1.27;;;;;;;33.01;31.60;97514.13;5032018;28;20625;-74
2021/08/05 09:56:36;;;;;;;2.08;1.30;;;;;;;33.06;30.77;97511.09;5032225;28;20627;-73
2021/08/05 09:59:11;;;;;;;1.35;1.20;;;;;;;32.49;30.52;97510.78;5032555;28;20703;-74
2021/08/05 10:01:59;;;;;;;1.30;1.10;;;;;;;32.83;30.60;97504.59;5033125;28;20218;-74
2021/08/05 10:04:29;;;;;;;1.88;1.30;;;;;;;32.96;29.98;97511.63;5032516;28;20737;-73
2021/08/05 10:07:01;;;;;;;1.48;1.20;;;;;;;32.47;30.63;97513.88;5032707;28;20568;-74
2021/08/05 10:09:33;;;;;;;2.60;1.75;;;;;;;33.17;30.70;97504.66;5032729;28;20225;-74
2021/08/05 10:12:26;;;;;;;3.10;1.20;;;;;;;32.76;29.60;97504.38;5030999;28;20671;-74
2021/08/05 10:15:10;;;;;;;3.13;1.45;;;;;;;30.27;34.10;97493.84;5032221;28;20195;-73
2021/08/05 10:17:44;;;;;;;1.50;1.20;;;;;;;31.24;32.08;97497.56;5032917;28;20705;-74
2021/08/05 10:20:19;;;;;;;2.67;1.08;;;;;;;32.42;31.11;97488.47;5032841;28;20202;-74
2021/08/05 10:22:56;;;;;;;2.92;1.38;;;;;;;31.78;31.14;97485.06;5022606;28;20213;-74
2021/08/05 10:25:28;;;;;;;2.40;1.40;;;;;;;31.67;31.66;97479.19;5031659;28;20215;-74
2021/08/05 10:28:01;;;;;;;2.55;1.00;;;;;;;32.68;30.83;97483.25;5032856;28;20553;-72
2021/08/05 10:30:32;;;;;;;1.55;1.17;;;;;;;32.29;31.14;97478.66;5032267;28;20202;-74
2021/08/05 10:33:05;;;;;;;1.45;1.25;;;;;;;31.77;30.95;97478.72;5032193;28;20643;-72
2021/08/05 10:35:34;;;;;;;1.00;0.90;;;;;;;33.23;28.47;97483.03;5032451;28;20195;-73
2021/08/05 10:38:05;;;;;;;1.00;0.90;;;;;;;31.96;28.53;97484.41;5031339;28;20659;-76
2021/08/05 10:40:47;;;;;;;1.00;0.90;;;;;;;33.22;28.26;97470.38;5027817;28;20718;-73
2021/08/05 10:43:19;;;;;;;2.50;0.90;;;;;;;33.46;27.15;97478.47;5024934;28;20559;-72
2021/08/05 10:45:52;;;;;;;1.88;1.20;;;;;;;35.03;26.35;97472.53;5031330;28;20768;-74
2021/08/05 10:48:21;;;;;;;1.13;1.00;;;;;;;33.88;26.09;97482.19;5032237;28;20223;-76
2021/08/05 10:50:50;;;;;;;1.10;1.00;;;;;;;31.76;29.56;97468.03;5031774;28;20684;-72
2021/08/05 10:53:46;;;;;;;1.27;1.10;;;;;;;33.14;28.80;97457.56;5032038;28;20280;-71
2021/08/05 10:56:23;;;;;;;0.98;0.90;;;;;;;33.72;28.05;97453.75;5024221;28;20543;-74
2021/08/05 10:59:07;;;;;;;1.40;1.30;;;;;;;33.54;28.66;97456.13;5033241;28;20238;-75
2021/08/05 11:01:55;;;;;;;2.45;1.13;;;;;;;33.86;28.42;97451.31;5032021;28;20206;-75
2021/08/05 11:04:50;;;;;;;2.85;1.13;;;;;;;34.47;27.95;97447.34;5012853;28;20199;-76
2021/08/05 11:07:26;;;;;;;1.10;1.00;;;;;;;35.09;26.88;97448.03;5012369;28;20217;-76
2021/08/05 11:10:22;;;;;;;2.58;1.20;;;;;;;34.44;26.48;97441.75;5032136;28;20702;-75
2021/08/05 11:12:56;;;;;;;2.63;1.30;;;;;;;32.51;30.06;97433.84;5032156;28;20214;-73
2021/08/05 11:15:52;;;;;;;1.83;1.02;;;;;;;33.51;28.80;97431.16;5031807;28;20198;-74
2021/08/05 11:18:21;;;;;;;1.90;1.00;;;;;;;34.65;26.58;97444.91;5063526;22;20264;-72
2021/08/05 11:21:35;;;;;;;1.90;1.10;;;;;;;33.09;28.34;97439.25;5051901;28;20218;-76
2021/08/05 11:24:03;;;;;;;1.10;1.00;;;;;;;35.12;25.79;97444.50;5051757;28;20677;-75
2021/08/05 11:26:30;;;;;;;1.13;0.80;;;;;;;33.23;27.46;97438.78;5050884;28;20256;-75
2021/08/05 11:28:57;;;;;;;3.40;1.05;;;;;;;34.15;27.14;97428.53;5050304;28;20239;-76
2021/08/05 11:31:44;;;;;;;1.33;1.00;;;;;;;33.08;29.71;97423.03;5051788;28;20198;-74
2021/08/05 11:34:13;;;;;;;4.15;1.45;;;;;;;32.70;30.16;97425.66;5048088;28;20201;-74
2021/08/05 11:36:47;;;;;;;4.10;1.10;;;;;;;33.24;29.10;97419.06;5045649;28;20616;-73
2021/08/05 11:39:27;;;;;;;2.97;1.10;;;;;;;33.89;27.60;97426.44;5055468;28;20193;-74
2021/08/05 11:42:01;;;;;;;2.15;1.30;;;;;;;33.91;28.89;97412.25;5055186;28;20209;-74
2021/08/05 11:44:47;;;;;;;7.85;1.10;;;;;;;34.04;27.94;97416.44;5054506;28;20212;-75
2021/08/05 11:47:19;;;;;;;2.30;1.30;;;;;;;34.86;27.17;97417.56;5053593;28;20646;-74